Time;durP1;ratioP1;P1;durP2;ratioP2;P2;SDS_P1;SDS_P2;PMS_P1;PMS_P2;Temp;Humidity;BMP_temperature;BMP_pressure;BME280_temperature;BME280_humidity;BME280_pressure;Samples;Min_cycle;Max_cycle;Signal;HPM_P1;HPM_P2
2022/07/03 00:00:31;;;;;;;8.10;7.30;;;;;;;22.26;63.07;99738.81;5014290;28;20445;-80
2022/07/03 00:02:56;;;;;;;8.30;7.05;;;;;;;22.48;62.81;99751.03;5012707;28;20160;-80
2022/07/03 00:05:22;;;;;;;8.60;6.32;;;;;;;22.25;63.45;99740.03;5013141;28;20026;-80
2022/07/03 00:07:48;;;;;;;7.63;6.80;;;;;;;22.74;62.01;99740.38;5012514;28;20469;-80
2022/07/03 00:10:13;;;;;;;10.57;6.65;;;;;;;22.76;62.00;99737.13;5013562;28;20026;-80
2022/07/03 00:12:39;;;;;;;9.40;8.35;;;;;;;22.52;62.35;99734.72;5028916;28;20030;-80
2022/07/03 00:15:05;;;;;;;6.68;6.07;;;;;;;22.62;61.80;99721.66;5012418;28;20125;-80
2022/07/03 00:17:31;;;;;;;15.00;7.47;;;;;;;22.52;62.64;99731.06;5014015;28;20030;-80
2022/07/03 00:19:57;;;;;;;8.98;6.60;;;;;;;22.97;61.34;99731.31;5013489;28;20020;-80
2022/07/03 00:22:25;;;;;;;8.50;7.57;;;;;;;23.33;60.17;99733.19;5012094;28;20032;-80
2022/07/03 00:24:52;;;;;;;10.82;7.32;;;;;;;23.28;60.20;99727.91;5013644;28;20053;-80
2022/07/03 00:27:20;;;;;;;8.52;7.30;;;;;;;23.50;59.72;99733.50;5013539;28;20030;-80
2022/07/03 00:29:46;;;;;;;9.32;6.60;;;;;;;23.74;58.72;99733.75;5012248;28;20117;-80
2022/07/03 00:32:18;;;;;;;7.95;7.15;;;;;;;23.75;58.45;99727.63;5013636;28;20054;-80
2022/07/03 00:34:46;;;;;;;10.73;7.03;;;;;;;23.81;57.97;99720.22;5012028;28;20022;-80
2022/07/03 00:37:12;;;;;;;9.95;7.20;;;;;;;23.92;57.65;99725.84;5011871;28;20111;-80
2022/07/03 00:39:40;;;;;;;8.30;6.90;;;;;;;23.87;57.89;99717.72;5011967;28;20084;-80
2022/07/03 00:42:07;;;;;;;9.82;7.57;;;;;;;23.80;58.12;99723.50;5013337;28;20075;-80
2022/07/03 00:44:42;;;;;;;11.40;6.82;;;;;;;23.88;57.84;99716.50;5011952;28;20088;-80
2022/07/03 00:47:08;;;;;;;9.35;6.78;;;;;;;24.02;57.25;99718.41;5013179;28;20075;-80
2022/07/03 00:49:35;;;;;;;12.85;7.47;;;;;;;23.98;57.48;99711.94;5012976;28;20054;-80
2022/07/03 00:52:05;;;;;;;12.82;8.05;;;;;;;24.04;57.75;99715.19;5013033;28;20033;-80
2022/07/03 00:54:33;;;;;;;15.88;8.00;;;;;;;24.02;57.56;99714.75;5011683;28;20030;-80
2022/07/03 00:57:00;;;;;;;10.82;7.30;;;;;;;23.91;58.09;99704.25;5013042;28;20030;-80
2022/07/03 00:59:26;;;;;;;8.32;7.45;;;;;;;23.17;60.71;99705.13;5027933;28;20508;-80
2022/07/03 01:02:06;;;;;;;17.65;8.07;;;;;;;23.05;61.42;99699.91;5011489;28;20026;-80
2022/07/03 01:04:56;;;;;;;10.35;8.50;;;;;;;22.92;61.88;99700.38;5028003;28;20030;-80
2022/07/03 01:07:48;;;;;;;12.00;8.38;;;;;;;22.91;62.14;99692.22;5012740;28;20144;-80
2022/07/03 01:10:17;;;;;;;13.10;8.57;;;;;;;22.85;62.64;99704.06;5001385;28;20036;-80
2022/07/03 01:12:55;;;;;;;13.10;8.13;;;;;;;22.64;63.25;99696.44;5012073;28;20025;-80
2022/07/03 01:15:53;;;;;;;9.52;7.70;;;;;;;22.79;62.82;99704.91;5010847;28;20029;-80
2022/07/03 01:18:53;;;;;;;11.82;8.57;;;;;;;22.74;63.28;99699.63;5011489;28;20497;-80
2022/07/03 01:21:54;;;;;;;9.20;8.25;;;;;;;22.63;63.81;99694.81;5011356;28;20036;-80
2022/07/03 01:24:19;;;;;;;;;;;;;;;22.14;65.62;99691.63;4994064;28;20034;-79
2022/07/03 01:26:47;;;;;;;13.80;9.23;;;;;;;21.88;66.26;99685.16;5012023;28;19913;-79
2022/07/03 01:29:25;;;;;;;11.50;9.65;;;;;;;21.56;67.72;99686.75;5012210;28;20029;-79
2022/07/03 01:31:55;;;;;;;12.25;9.32;;;;;;;21.58;67.95;99694.84;5011121;28;20113;-79
2022/07/03 01:34:25;;;;;;;14.35;9.27;;;;;;;21.45;68.15;99686.72;5011000;28;20120;-79
2022/07/03 01:36:54;;;;;;;12.45;9.93;;;;;;;21.39;68.16;99698.91;5012486;28;20502;-79
2022/07/03 01:39:21;;;;;;;11.48;9.63;;;;;;;20.99;69.29;99687.44;5012316;28;20041;-79
2022/07/03 01:41:49;;;;;;;12.65;9.85;;;;;;;20.86;69.67;99684.94;5010705;28;20147;-79
2022/07/03 01:44:15;;;;;;;14.55;9.50;;;;;;;20.79;70.48;99693.44;5012319;28;20118;-79
2022/07/03 01:46:45;;;;;;;13.75;9.95;;;;;;;20.92;70.18;99693.91;5010996;28;20122;-79
2022/07/03 01:49:14;;;;;;;15.38;9.15;;;;;;;20.93;69.86;99694.72;5010543;28;20112;-79
2022/07/03 01:51:41;;;;;;;12.73;9.07;;;;;;;20.91;69.94;99692.28;5012399;28;20022;-79
2022/07/03 01:54:09;;;;;;;10.43;9.35;;;;;;;20.62;70.60;99692.13;5011959;28;20105;-79
2022/07/03 01:56:35;;;;;;;13.75;10.07;;;;;;;20.62;70.57;99697.81;5011162;28;20061;-79
2022/07/03 01:59:02;;;;;;;14.93;10.13;;;;;;;20.16;72.59;99696.34;5010853;28;20057;-80
2022/07/03 02:01:39;;;;;;;15.30;9.88;;;;;;;20.18;73.05;99702.44;5011946;28;20100;-79
2022/07/03 02:04:16;;;;;;;15.65;8.90;;;;;;;20.10;73.34;99695.91;5010861;28;20141;-79
2022/07/03 02:06:53;;;;;;;11.27;9.00;;;;;;;19.83;73.93;99687.53;5010750;28;20057;-79
2022/07/03 02:09:26;;;;;;;10.13;8.88;;;;;;;19.96;73.76;99698.63;5010820;28;20041;-79
2022/07/03 02:11:52;;;;;;;9.93;8.93;;;;;;;20.00;73.53;99696.63;5010675;28;20026;-79
2022/07/03 02:14:40;;;;;;;11.48;9.02;;;;;;;19.66;75.03;99706.03;5012229;28;20488;-79
2022/07/03 02:17:20;;;;;;;15.05;9.25;;;;;;;19.48;75.45;99706.72;5012003;28;20037;-79
2022/07/03 02:19:51;;;;;;;10.13;9.13;;;;;;;19.51;75.93;99699.44;5010761;28;20014;-79
2022/07/03 02:22:20;;;;;;;13.40;9.90;;;;;;;19.61;75.49;99709.25;5010421;28;20065;-80
2022/07/03 02:24:47;;;;;;;11.15;9.63;;;;;;;19.61;75.44;99704.41;5011973;28;20033;-79
2022/07/03 02:27:19;;;;;;;10.68;9.35;;;;;;;19.70;75.16;99706.91;5011830;28;20036;-80
2022/07/03 02:30:01;;;;;;;11.68;9.18;;;;;;;19.77;74.71;99701.28;5011895;28;20076;-80
2022/07/03 02:32:30;;;;;;;9.45;8.32;;;;;;;19.86;74.47;99705.81;5012621;28;20036;-79
2022/07/03 02:35:10;;;;;;;13.52;8.70;;;;;;;19.62;75.60;99708.03;5014219;28;20097;-79
2022/07/03 02:37:43;;;;;;;10.05;8.80;;;;;;;19.51;76.03;99707.97;5014270;28;20029;-79
2022/07/03 02:40:19;;;;;;;10.50;9.15;;;;;;;19.58;75.61;99704.38;5014385;28;20022;-79
2022/07/03 02:42:54;;;;;;;14.82;9.13;;;;;;;19.68;74.95;99703.66;5015632;28;20022;-79
2022/07/03 02:45:22;;;;;;;10.93;9.18;;;;;;;19.63;75.29;99702.00;5014440;28;20053;-79
2022/07/03 02:48:02;;;;;;;11.02;8.88;;;;;;;19.54;75.91;99703.50;5014103;28;20112;-79
2022/07/03 02:50:28;;;;;;;12.05;8.88;;;;;;;19.66;75.66;99719.44;5015031;28;20578;-79
2022/07/03 02:53:28;;;;;;;16.02;9.35;;;;;;;19.88;74.61;99707.06;5015276;28;20391;-80
2022/07/03 02:56:05;;;;;;;9.48;8.27;;;;;;;20.06;74.07;99709.25;5015365;28;20030;-79
2022/07/03 02:59:03;;;;;;;18.48;9.77;;;;;;;20.18;73.42;99708.13;5030630;28;20030;-79
2022/07/03 03:01:28;;;;;;;14.55;8.80;;;;;;;20.29;72.96;99706.16;5014809;28;20048;-80
2022/07/03 03:04:20;;;;;;;20.38;9.73;;;;;;;20.22;73.20;99706.13;5013890;28;20030;-80
2022/07/03 03:07:02;;;;;;;14.57;9.38;;;;;;;20.11;73.57;99699.53;5013602;28;20116;-77
2022/07/03 03:09:34;;;;;;;12.65;10.18;;;;;;;20.13;73.89;99699.97;5029817;28;20496;-76
2022/07/03 03:12:01;;;;;;;15.90;9.80;;;;;;;20.24;73.68;99700.06;5014113;28;20032;-76
2022/07/03 03:14:38;;;;;;;12.82;9.73;;;;;;;20.23;73.76;99689.91;5031914;28;20021;-76
2022/07/03 03:17:05;;;;;;;21.70;10.43;;;;;;;20.37;73.14;99703.34;5032213;28;20476;-81
2022/07/03 03:19:39;;;;;;;15.18;11.07;;;;;;;20.54;72.38;99707.50;5033777;28;20400;-73
2022/07/03 03:22:24;;;;;;;14.15;9.00;;;;;;;20.58;72.14;99697.81;5034461;28;20030;-75
2022/07/03 03:24:50;;;;;;;19.25;10.50;;;;;;;20.60;72.31;99703.09;5014286;28;20022;-76
2022/07/03 03:27:16;;;;;;;18.33;9.35;;;;;;;20.37;72.49;99707.03;5013755;28;20073;-75
2022/07/03 03:29:42;;;;;;;15.75;10.00;;;;;;;20.12;73.72;99716.19;5012477;28;20042;-75
2022/07/03 03:32:08;;;;;;;17.27;9.50;;;;;;;20.04;74.44;99703.97;5012976;28;20101;-75
2022/07/03 03:34:34;;;;;;;19.25;10.18;;;;;;;20.03;74.21;99707.19;5012209;28;20455;-75
2022/07/03 03:37:00;;;;;;;16.48;10.75;;;;;;;19.77;75.31;99711.84;5013329;28;20028;-75
2022/07/03 03:39:27;;;;;;;12.73;9.75;;;;;;;19.62;76.14;99708.03;5011987;28;20409;-76
2022/07/03 03:41:53;;;;;;;23.40;10.50;;;;;;;19.57;75.92;99697.88;5013246;28;20024;-76
2022/07/03 03:44:18;;;;;;;17.08;10.07;;;;;;;19.45;76.90;99701.81;5012933;28;20022;-75
2022/07/03 03:46:44;;;;;;;13.75;10.82;;;;;;;19.46;77.18;99703.44;5013147;28;20053;-75
2022/07/03 03:49:09;;;;;;;12.43;9.18;;;;;;;19.63;76.84;99706.84;5013111;28;20556;-75
2022/07/03 03:54:20;;;;;;;22.52;11.23;;;;;;;19.34;78.13;99696.03;5349598;22;20053;-92
2022/07/03 03:56:46;;;;;;;17.00;10.85;;;;;;;19.47;77.96;99710.75;5014450;28;20044;-92
2022/07/03 03:59:12;;;;;;;15.52;10.43;;;;;;;19.32;79.05;99709.00;4997434;28;20034;-91
2022/07/03 04:01:37;;;;;;;19.48;11.82;;;;;;;19.29;78.85;99704.06;4998286;28;20026;-92
2022/07/03 04:04:03;;;;;;;15.48;11.02;;;;;;;19.30;79.05;99700.03;4998038;28;20504;-92
2022/07/03 04:06:28;;;;;;;19.75;11.52;;;;;;;19.26;79.51;99694.34;4998014;28;20026;-92
2022/07/03 04:08:54;;;;;;;20.48;12.05;;;;;;;19.39;79.54;99709.03;4997903;28;20055;-92
2022/07/03 04:11:19;;;;;;;13.07;10.05;;;;;;;19.41;79.83;99694.47;4997917;28;20030;-92
2022/07/03 04:13:48;;;;;;;15.90;12.48;;;;;;;19.32;79.80;99677.78;4998077;28;20031;-92
2022/07/03 04:16:13;;;;;;;15.13;10.73;;;;;;;19.35;80.22;99703.31;4998104;28;20033;-92
2022/07/03 04:18:39;;;;;;;19.60;13.27;;;;;;;19.31;80.57;99716.66;4998061;28;20033;-90
2022/07/03 04:21:04;;;;;;;14.75;11.73;;;;;;;19.54;79.77;99712.84;4997865;28;20095;-91
2022/07/03 04:23:30;;;;;;;27.58;19.58;;;;;;;19.69;79.31;99715.81;4997567;28;20112;-92
2022/07/03 04:26:02;;;;;;;18.60;14.55;;;;;;;19.82;78.85;99719.97;4997698;28;20470;-92
2022/07/03 04:28:28;;;;;;;25.88;15.23;;;;;;;19.77;77.75;99678.59;4997605;28;20010;-92
2022/07/03 04:30:53;;;;;;;28.05;20.50;;;;;;;19.94;78.03;99703.88;5014818;28;20032;-92
2022/07/03 04:33:19;;;;;;;34.60;18.65;;;;;;;20.13;78.02;99719.84;4996778;28;20031;-93
2022/07/03 04:35:44;;;;;;;31.73;17.17;;;;;;;20.16;77.53;99717.03;4997526;28;20030;-91
2022/07/03 04:38:10;;;;;;;26.52;20.20;;;;;;;20.36;77.07;99713.09;4997291;28;20025;-92
2022/07/03 04:40:35;;;;;;;15.95;13.73;;;;;;;20.41;76.46;99687.16;4997617;28;20026;-92
2022/07/03 04:43:01;;;;;;;38.88;20.85;;;;;;;20.75;74.45;99689.75;4997694;28;20065;-92
2022/07/03 04:47:57;;;;;;;20.88;14.82;;;;;;;21.16;73.40;99700.06;5237487;23;20045;-90
2022/07/03 04:50:23;;;;;;;20.33;14.23;;;;;;;21.36;71.95;99703.38;5032013;28;20404;-90
2022/07/03 04:52:49;;;;;;;24.95;12.90;;;;;;;21.43;71.36;99711.13;5015398;28;20410;-89
2022/07/03 04:55:14;;;;;;;24.33;12.15;;;;;;;21.49;70.90;99703.00;5014818;28;20388;-89
2022/07/03 04:57:40;;;;;;;20.98;11.07;;;;;;;21.23;71.11;99687.91;5032832;28;20117;-91
2022/07/03 05:00:07;;;;;;;18.45;12.73;;;;;;;21.47;71.42;99711.94;5015565;28;20366;-91
2022/07/03 05:02:32;;;;;;;17.10;11.80;;;;;;;21.41;71.84;99719.22;5015275;28;20059;-90
2022/07/03 05:04:58;;;;;;;15.85;11.93;;;;;;;21.37;71.20;99699.31;5032773;28;20466;-90
2022/07/03 05:07:24;;;;;;;17.02;11.57;;;;;;;21.35;71.43;99707.44;5015224;28;20033;-89
2022/07/03 05:09:49;;;;;;;17.17;12.45;;;;;;;21.45;70.99;99680.22;5015094;28;20091;-90
2022/07/03 05:12:15;;;;;;;17.88;12.43;;;;;;;21.93;69.63;99701.81;5015170;28;20037;-90
2022/07/03 05:14:40;;;;;;;20.92;11.93;;;;;;;22.25;68.50;99706.66;5015110;28;20032;-90
2022/07/03 05:17:06;;;;;;;18.58;12.57;;;;;;;22.46;66.86;99707.84;5015096;28;20163;-90
2022/07/03 05:19:31;;;;;;;18.35;12.05;;;;;;;22.47;66.22;99706.63;5015112;28;20025;-91
2022/07/03 05:21:57;;;;;;;22.92;12.20;;;;;;;22.58;65.36;99701.75;5014994;28;20472;-90
2022/07/03 05:24:23;;;;;;;16.83;11.98;;;;;;;22.88;65.05;99710.16;5014803;28;20029;-91
2022/07/03 05:26:50;;;;;;;12.98;10.15;;;;;;;23.11;63.66;99699.06;5014928;28;20467;-90
2022/07/03 05:29:15;;;;;;;13.82;9.95;;;;;;;23.32;62.29;99688.78;5014840;28;20061;-91
2022/07/03 05:31:41;;;;;;;11.18;10.00;;;;;;;23.64;61.62;99695.50;5014662;28;20064;-91
2022/07/03 05:34:06;;;;;;;16.60;9.43;;;;;;;23.71;61.00;99706.84;5014861;28;20091;-90
2022/07/03 05:36:31;;;;;;;17.27;9.40;;;;;;;23.72;60.47;99688.50;5014938;28;20033;-91
2022/07/03 05:41:41;;;;;;;11.77;8.88;;;;;;;24.13;59.14;99712.63;5032691;28;20167;-91
2022/07/03 05:44:06;;;;;;;15.48;8.88;;;;;;;24.30;56.91;99705.13;5014706;28;20519;-91
2022/07/03 05:46:32;;;;;;;13.23;8.65;;;;;;;24.39;57.37;99713.22;5032256;28;20025;-91
2022/07/03 05:48:57;;;;;;;13.27;9.23;;;;;;;24.57;56.71;99717.91;5014383;28;20139;-90
2022/07/03 05:51:23;;;;;;;13.50;10.50;;;;;;;24.53;56.34;99707.34;5014312;28;20037;-90
2022/07/03 05:53:48;;;;;;;11.43;8.57;;;;;;;24.43;55.65;99685.38;5014526;28;20127;-90
2022/07/03 05:56:14;;;;;;;9.70;8.27;;;;;;;24.56;56.12;99716.28;5014654;28;20026;-90
2022/07/03 05:58:41;;;;;;;10.48;8.45;;;;;;;24.69;55.45;99703.06;5014812;28;20549;-90
2022/07/03 06:01:07;;;;;;;10.85;8.68;;;;;;;24.89;55.39;99705.31;5014571;28;20026;-90
2022/07/03 06:03:32;;;;;;;14.45;8.45;;;;;;;24.81;55.44;99704.59;5014760;28;20119;-90
2022/07/03 06:05:59;;;;;;;18.73;10.05;;;;;;;25.02;55.52;99706.34;5014897;28;20029;-91
2022/07/03 06:08:25;;;;;;;26.67;10.48;;;;;;;25.11;54.38;99699.31;5049720;28;20028;-91
2022/07/03 06:10:50;;;;;;;21.92;8.55;;;;;;;25.37;53.42;99712.00;5047849;28;20112;-90
2022/07/03 06:13:16;;;;;;;16.25;9.95;;;;;;;25.39;52.93;99698.06;5042264;28;20035;-91
2022/07/03 06:15:42;;;;;;;14.55;8.63;;;;;;;25.57;53.14;99703.53;5038580;28;20032;-92
2022/07/03 06:18:07;;;;;;;15.75;8.95;;;;;;;25.83;52.16;99706.00;5029250;28;20028;-90
2022/07/03 06:20:33;;;;;;;10.52;8.63;;;;;;;25.51;51.54;99688.91;5034912;28;20036;-92
2022/07/03 06:22:58;;;;;;;15.20;9.40;;;;;;;25.86;51.94;99705.97;5035623;28;20080;-93
2022/07/03 06:25:24;;;;;;;12.38;8.70;;;;;;;25.75;51.18;99685.28;5018641;28;20021;-93
2022/07/03 06:27:50;;;;;;;13.63;9.05;;;;;;;25.61;51.09;99686.31;5050712;28;20504;-93
2022/07/03 06:30:15;;;;;;;15.73;9.45;;;;;;;25.59;52.09;99689.63;5038349;28;20017;-93
2022/07/03 06:32:41;;;;;;;14.32;9.30;;;;;;;25.51;51.71;99668.06;5038327;28;20098;-93
2022/07/03 06:35:07;;;;;;;16.88;9.85;;;;;;;25.50;52.21;99692.22;5038469;28;20415;-93
2022/07/03 06:37:32;;;;;;;11.73;9.05;;;;;;;25.76;52.04;99676.25;5038721;28;20048;-92
2022/07/03 06:39:58;;;;;;;12.00;8.48;;;;;;;26.08;49.57;99679.81;5038136;28;20024;-92
2022/07/03 06:42:23;;;;;;;11.80;9.25;;;;;;;26.04;50.13;99670.44;5038280;28;20546;-92
2022/07/03 06:44:49;;;;;;;9.25;8.35;;;;;;;26.21;48.59;99659.94;5038262;28;20036;-92
2022/07/03 06:47:15;;;;;;;12.55;8.38;;;;;;;26.42;48.12;99690.22;5038068;28;20048;-92
2022/07/03 06:49:40;;;;;;;12.52;7.82;;;;;;;26.47;46.89;99666.81;5037733;28;20025;-92
2022/07/03 06:52:06;;;;;;;11.35;8.13;;;;;;;26.43;46.10;99657.47;5038174;28;20028;-93
2022/07/03 06:54:32;;;;;;;8.52;6.63;;;;;;;26.75;45.46;99675.25;5038487;28;20025;-92
2022/07/03 06:56:57;;;;;;;10.40;8.30;;;;;;;27.08;46.37;99686.84;5038071;28;20052;-92
2022/07/03 06:59:23;;;;;;;12.73;8.70;;;;;;;27.20;47.00;99676.75;5039596;28;20059;-93
2022/07/03 07:01:48;;;;;;;10.98;7.32;;;;;;;27.22;46.14;99668.50;5054518;28;20094;-93
2022/07/03 07:04:14;;;;;;;13.13;7.55;;;;;;;27.44;45.78;99668.00;5054670;28;20025;-94
2022/07/03 07:06:39;;;;;;;12.40;8.18;;;;;;;27.44;45.31;99642.97;5054747;28;20032;-94
2022/07/03 07:09:05;;;;;;;11.50;7.90;;;;;;;27.80;45.47;99664.28;5054479;28;20052;-92
2022/07/03 07:11:31;;;;;;;15.63;7.70;;;;;;;27.75;45.52;99653.31;5054568;28;20116;-93
2022/07/03 07:13:56;;;;;;;13.60;7.55;;;;;;;27.40;44.64;99644.31;5054338;28;20028;-92
2022/07/03 07:16:22;;;;;;;9.68;6.78;;;;;;;27.95;44.87;99672.53;5054083;28;20032;-90
2022/07/03 07:18:47;;;;;;;21.08;7.13;;;;;;;28.09;44.52;99666.38;5053235;28;20388;-90
2022/07/03 07:21:13;;;;;;;15.52;8.05;;;;;;;27.85;43.35;99657.97;5054025;28;20021;-90
2022/07/03 07:23:39;;;;;;;10.73;7.75;;;;;;;27.59;43.59;99654.94;5053923;28;20039;-90
2022/07/03 07:26:04;;;;;;;9.20;7.18;;;;;;;27.92;43.13;99656.19;5053578;28;20482;-91
2022/07/03 07:28:31;;;;;;;15.65;7.88;;;;;;;28.03;42.65;99662.47;5047992;28;20033;-91
2022/07/03 07:30:57;;;;;;;8.55;6.70;;;;;;;28.19;42.20;99657.97;5025835;28;20488;-90
2022/07/03 07:33:23;;;;;;;10.18;7.63;;;;;;;27.91;42.54;99654.56;5033602;28;20033;-91
2022/07/03 07:35:49;;;;;;;8.70;7.28;;;;;;;27.60;42.76;99621.28;5017040;28;20091;-92
2022/07/03 07:38:16;;;;;;;11.00;7.30;;;;;;;28.10;43.28;99626.97;5017317;28;20025;-91
2022/07/03 07:40:42;;;;;;;15.32;7.72;;;;;;;28.68;42.96;99666.44;5017226;28;20021;-92
2022/07/03 07:43:07;;;;;;;15.10;7.93;;;;;;;28.71;42.65;99648.25;5017057;28;20171;-91
2022/07/03 07:45:33;;;;;;;11.13;6.28;;;;;;;28.43;41.45;99647.81;5017382;28;20026;-91
2022/07/03 07:47:59;;;;;;;29.63;9.52;;;;;;;28.13;41.33;99629.75;5016977;28;20053;-91
2022/07/03 07:50:25;;;;;;;9.48;7.05;;;;;;;28.45;40.82;99645.28;5016740;28;20056;-91
2022/07/03 07:52:50;;;;;;;13.73;6.82;;;;;;;28.61;41.82;99619.81;5033368;28;20021;-91
2022/07/03 07:55:16;;;;;;;11.13;6.57;;;;;;;28.80;40.49;99636.09;5016790;28;20056;-92
2022/07/03 07:57:42;;;;;;;20.45;7.60;;;;;;;28.95;40.49;99619.19;5033358;28;20048;-91
2022/07/03 08:00:11;;;;;;;15.88;7.32;;;;;;;29.02;40.14;99637.50;5037965;28;20483;-91
2022/07/03 08:05:37;;;;;;;13.05;7.38;;;;;;;29.46;39.17;99640.66;5054475;28;20056;-91
2022/07/03 08:08:07;;;;;;;14.23;7.78;;;;;;;29.46;38.93;99643.53;5053201;28;20032;-92
2022/07/03 08:10:41;;;;;;;;;;;;;;;29.60;38.83;99658.75;5052814;28;20025;-89
2022/07/03 08:13:08;;;;;;;12.27;6.28;;;;;;;29.96;38.80;99661.19;5052128;28;19908;-89
2022/07/03 08:15:34;;;;;;;12.05;7.00;;;;;;;30.17;39.12;99655.16;5052067;28;20021;-90
2022/07/03 08:18:00;;;;;;;14.60;6.47;;;;;;;30.20;37.30;99631.97;5053298;28;20033;-88
2022/07/03 08:20:26;;;;;;;8.23;6.28;;;;;;;30.31;37.35;99651.78;5039240;28;20020;-88
2022/07/03 08:22:51;;;;;;;11.68;5.90;;;;;;;30.47;38.95;99644.19;5034341;28;20411;-88
2022/07/03 08:25:17;;;;;;;8.20;6.85;;;;;;;30.17;37.64;99632.09;5034962;28;20025;-90
2022/07/03 08:27:43;;;;;;;30.55;7.30;;;;;;;30.29;38.85;99625.50;5035366;28;20025;-88
2022/07/03 08:30:09;;;;;;;14.95;6.90;;;;;;;30.47;37.74;99638.44;5033969;28;20512;-88
2022/07/03 08:32:35;;;;;;;12.93;5.78;;;;;;;30.72;36.10;99648.25;5034934;28;20494;-90
2022/07/03 08:35:00;;;;;;;12.38;6.75;;;;;;;30.87;36.18;99642.72;5035131;28;20021;-89
2022/07/03 08:37:26;;;;;;;7.60;6.07;;;;;;;31.23;35.10;99658.66;5034902;28;20564;-88
2022/07/03 08:39:52;;;;;;;9.25;5.68;;;;;;;31.30;35.36;99652.56;5034085;28;20052;-88
2022/07/03 10:05:15;;;;;;;16.95;6.22;;;;;;;33.56;30.58;99602.81;5099453;27;20269;-76
2022/07/03 10:07:51;;;;;;;6.45;4.82;;;;;;;33.64;29.40;99600.34;5086014;28;20047;-78
2022/07/03 10:10:19;;;;;;;6.68;4.35;;;;;;;33.74;29.42;99599.00;5082474;28;20035;-80
2022/07/03 10:12:48;;;;;;;4.90;4.40;;;;;;;33.80;29.24;99597.00;5081544;28;20121;-80
2022/07/03 10:15:15;;;;;;;5.30;4.78;;;;;;;33.79;27.25;99591.69;5065253;28;20185;-75
2022/07/03 10:17:43;;;;;;;6.68;4.97;;;;;;;33.67;28.88;99585.69;5085701;28;20020;-74
2022/07/03 10:20:14;;;;;;;10.95;5.35;;;;;;;33.81;28.85;99589.91;5077894;28;20503;-76
2022/07/03 10:22:45;;;;;;;13.27;5.03;;;;;;;33.88;29.27;99600.34;5080586;28;20012;-75
2022/07/03 10:25:11;;;;;;;5.22;4.75;;;;;;;33.96;27.85;99589.97;5077322;28;20383;-74
2022/07/03 10:27:38;;;;;;;8.02;4.75;;;;;;;33.77;28.24;99576.91;5085709;28;20623;-74
2022/07/03 10:30:04;;;;;;;6.78;4.68;;;;;;;33.79;28.33;99585.91;5083489;28;20024;-75
2022/07/03 10:32:32;;;;;;;10.73;5.28;;;;;;;33.69;29.27;99585.16;5081830;28;20407;-76
2022/07/03 10:34:58;;;;;;;9.93;4.88;;;;;;;33.81;29.46;99577.53;5073521;28;20020;-74
2022/07/03 10:37:37;;;;;;;7.93;5.00;;;;;;;34.00;28.74;99576.09;5087607;28;20089;-75
2022/07/03 10:46:09;;;;;;;8.07;4.97;;;;;;;34.10;28.08;99565.22;5073340;28;20039;-74
2022/07/03 10:49:00;;;;;;;9.70;5.32;;;;;;;34.32;28.73;99569.06;5084596;28;20105;-74
2022/07/03 10:51:27;;;;;;;11.23;5.20;;;;;;;34.50;27.98;99570.97;5074969;28;20044;-74
2022/07/03 10:54:21;;;;;;;8.70;5.82;;;;;;;34.44;27.91;99565.84;5085463;28;20514;-74
2022/07/03 10:56:58;;;;;;;7.13;4.78;;;;;;;34.23;27.95;99561.25;5075555;28;20032;-76
2022/07/03 10:59:45;;;;;;;6.90;5.43;;;;;;;34.30;28.14;99550.03;5080645;28;20024;-77
2022/07/03 11:02:34;;;;;;;11.55;5.45;;;;;;;34.62;27.04;99554.56;5079859;28;20094;-77
2022/07/03 11:05:03;;;;;;;12.52;5.75;;;;;;;34.43;28.50;99551.84;5082815;28;20151;-77
2022/07/03 11:07:33;;;;;;;18.92;6.18;;;;;;;34.50;28.08;99545.63;5056184;28;20041;-76
2022/07/03 11:10:14;;;;;;;13.75;6.45;;;;;;;34.60;27.14;99546.38;5067155;28;20058;-77
2022/07/03 11:13:09;;;;;;;11.02;5.60;;;;;;;34.55;29.25;99547.88;5068667;28;20048;-78
2022/07/03 11:15:49;;;;;;;6.95;5.13;;;;;;;34.26;27.61;99552.31;5060481;28;20029;-74
2022/07/03 11:18:17;;;;;;;8.50;4.75;;;;;;;34.16;27.41;99542.13;5065583;28;20628;-76
2022/07/03 11:20:42;;;;;;;10.80;5.63;;;;;;;34.04;28.23;99544.00;5069923;28;20040;-75
2022/07/03 11:23:11;;;;;;;10.23;5.63;;;;;;;34.15;28.45;99544.22;5060256;28;20036;-75
2022/07/03 11:25:41;;;;;;;5.07;4.57;;;;;;;34.30;27.49;99535.53;5070434;28;20040;-75
2022/07/03 11:28:07;;;;;;;18.13;5.53;;;;;;;34.42;27.88;99529.94;5071229;28;20139;-75
2022/07/03 11:30:33;;;;;;;13.23;5.47;;;;;;;34.43;28.45;99534.44;5068052;28;20099;-75
2022/07/03 11:33:00;;;;;;;7.70;5.28;;;;;;;34.30;27.50;99528.91;5061708;28;20462;-76
2022/07/03 11:35:48;;;;;;;9.07;5.60;;;;;;;34.34;28.79;99529.53;5066921;28;20089;-76
2022/07/03 11:38:27;;;;;;;8.50;5.20;;;;;;;34.39;28.06;99530.91;5054290;28;20033;-75
2022/07/03 11:40:54;;;;;;;10.88;4.97;;;;;;;34.34;28.68;99522.91;5065342;28;20554;-76
2022/07/03 11:43:20;;;;;;;9.18;5.80;;;;;;;34.39;27.54;99525.09;5070037;28;20037;-76
2022/07/03 11:45:49;;;;;;;11.73;5.95;;;;;;;34.26;27.87;99517.50;5067635;28;20028;-76
2022/07/03 11:48:23;;;;;;;9.82;5.60;;;;;;;34.23;27.25;99526.44;5068529;28;20055;-75
2022/07/03 11:50:50;;;;;;;5.55;5.05;;;;;;;34.30;27.17;99521.03;5069228;28;20032;-76
2022/07/03 11:53:16;;;;;;;8.10;5.28;;;;;;;34.38;28.23;99523.50;5071842;28;20089;-75
2022/07/03 11:55:55;;;;;;;6.15;5.47;;;;;;;34.75;28.58;99499.09;5065233;28;20029;-75
2022/07/03 11:58:22;;;;;;;6.30;5.72;;;;;;;34.74;26.66;99500.41;5068671;28;20561;-75
2022/07/03 12:00:48;;;;;;;8.38;5.32;;;;;;;34.78;27.31;99509.69;5070348;28;20040;-75
2022/07/03 12:03:15;;;;;;;11.77;5.72;;;;;;;34.93;27.55;99506.75;5063849;28;20052;-75
2022/07/03 12:05:56;;;;;;;6.47;5.03;;;;;;;35.08;27.45;99513.34;5070272;28;20029;-75
2022/07/03 12:08:32;;;;;;;14.55;6.18;;;;;;;34.84;27.13;99517.19;5076092;28;20518;-75
2022/07/03 12:11:09;;;;;;;8.48;5.68;;;;;;;34.61;27.67;99501.53;5070007;28;20064;-75
2022/07/03 12:13:35;;;;;;;8.77;6.05;;;;;;;34.63;27.34;99510.53;5068696;28;20039;-75
2022/07/03 12:16:05;;;;;;;9.15;6.05;;;;;;;34.74;28.64;99507.00;5053333;28;20063;-75
2022/07/03 12:18:51;;;;;;;6.97;5.15;;;;;;;34.98;27.25;99508.94;5050953;28;20029;-75
2022/07/03 12:21:23;;;;;;;6.82;5.40;;;;;;;35.18;27.24;99495.78;5070841;28;20055;-76
2022/07/03 12:23:53;;;;;;;6.25;5.28;;;;;;;35.18;26.91;99484.97;5070515;28;20023;-75
2022/07/03 12:26:30;;;;;;;11.23;6.07;;;;;;;35.13;27.54;99497.31;5071465;28;20036;-75
2022/07/03 12:29:00;;;;;;;7.97;5.53;;;;;;;35.09;27.61;99496.72;5068879;28;20029;-77
2022/07/03 12:31:28;;;;;;;8.82;5.43;;;;;;;35.06;26.47;99494.84;5064989;28;20032;-79
2022/07/03 12:33:54;;;;;;;8.55;5.90;;;;;;;34.97;26.40;99481.19;5068841;28;20027;-75
2022/07/03 12:36:20;;;;;;;6.28;5.70;;;;;;;34.97;27.46;99489.91;5069375;28;20051;-75
2022/07/03 12:38:51;;;;;;;12.20;6.55;;;;;;;34.88;27.33;99487.94;5059591;28;20024;-75
2022/07/03 12:41:17;;;;;;;10.50;6.30;;;;;;;34.90;28.14;99470.03;5069595;28;20098;-76
2022/07/03 12:43:47;;;;;;;15.75;6.82;;;;;;;35.07;27.17;99476.88;5070344;28;20394;-75
2022/07/03 12:46:35;;;;;;;9.73;6.30;;;;;;;35.18;26.62;99484.16;5067927;28;20078;-75
2022/07/03 12:49:11;;;;;;;9.98;6.47;;;;;;;35.06;27.54;99474.50;5067347;28;20043;-77
2022/07/03 12:51:49;;;;;;;13.60;5.78;;;;;;;35.28;27.08;99471.88;5069380;28;20028;-74
2022/07/03 12:54:21;;;;;;;12.23;7.10;;;;;;;35.25;28.12;99466.31;5055027;28;20036;-76
2022/07/03 13:00:06;;;;;;;13.70;5.25;;;;;;;35.22;27.18;99462.31;5065030;28;20047;-77
2022/07/03 13:02:36;;;;;;;11.55;6.07;;;;;;;34.99;27.90;99459.06;5063517;28;20040;-74
2022/07/03 13:05:16;;;;;;;10.57;6.00;;;;;;;34.92;29.01;99455.78;5069679;28;20423;-74
2022/07/03 13:07:43;;;;;;;6.97;6.28;;;;;;;35.07;27.95;99447.06;5062933;28;20036;-75
2022/07/03 13:10:09;;;;;;;6.57;5.97;;;;;;;34.98;27.40;99454.56;5066692;28;20073;-77
2022/07/03 13:12:54;;;;;;;11.70;6.10;;;;;;;34.98;26.53;99453.75;5065930;28;20036;-79
2022/07/03 13:15:24;;;;;;;9.85;6.30;;;;;;;35.09;27.77;99445.22;5082156;28;20035;-81
2022/07/03 13:17:49;;;;;;;;;;;;;;;34.83;28.22;99448.78;5069205;28;20024;-78
2022/07/03 13:20:15;;;;;;;12.32;6.68;;;;;;;34.60;28.49;99438.94;5060145;28;20016;-76